Am Tubarao — A8ZA9 — position and weather

sailwx.info

Track history (hours):
 
Tides and Currents Weather Stations Pressure Air Temp Water Temp Dewpoint Dewpoint Depression Visibility Wind Speed Wind Dir Waves Ship Positions

Am Tubarao

Last reported at 2015-Jan-29 22:05 UTC. Time now 2015-Feb-01 00:32 UTC.
Position N 50°29' W 000°02'.

Length 230 m; draft 9.3 m.

Type: Cargo ship. MMSI: 636015171.

Date/timePositionNaut miles runAvg speedWind from/ knotsBaromVisibWave heightAir tempDewpointWater temp
2015-Jan-29 22:05N 50°29' W 000°02'2013.1
2015-Jan-29 20:33N 50°34' E 000°29'1313.0
2015-Jan-29 19:33N 50°40' E 000°47'1313.0
2015-Jan-29 18:32N 50°47' E 001°05'1212.5
2015-Jan-29 17:34N 50°56' E 001°19'1312.6
2015-Jan-29 16:33N 51°05' E 001°33'1414.0
2015-Jan-29 15:34N 51°15' E 001°48'1313.3
2015-Jan-29 14:33N 51°24' E 002°02'1212.2
2015-Jan-29 13:33N 51°21' E 002°21'1212.2
2015-Jan-29 12:33N 51°23' E 002°40'1010.2
2015-Jan-29 11:33N 51°23' E 002°57'1212.5
2015-Jan-29 10:34N 51°25' E 003°16'1413.6
2015-Jan-29 09:34N 51°26' E 003°38'6 5.7
2015-Jan-29 08:32N 51°24' E 003°46'0 0.0
2015-Jan-29 07:32N 51°23' E 003°46'0 0.0
2015-Jan-29 06:32N 51°23' E 003°46'0 0.0
2015-Jan-29 05:32N 51°23' E 003°46'0 0.0
2015-Jan-29 04:32N 51°23' E 003°46'0 0.1
2015-Jan-29 03:32N 51°24' E 003°46'0 0.1
2015-Jan-29 02:32N 51°24' E 003°46'0 0.1
2015-Jan-29 01:32N 51°24' E 003°46'0 0.0
2015-Jan-29 00:32N 51°24' E 003°46'0 0.0
2015-Jan-28 23:32N 51°24' E 003°46'0 0.1
2015-Jan-28 22:32N 51°24' E 003°46'0 0.2
2015-Jan-28 21:32N 51°23' E 003°46'0 0.0
2015-Jan-28 20:32N 51°23' E 003°46'0 0.0
2015-Jan-28 19:29N 51°23' E 003°46'0 0.0
2015-Jan-28 18:32N 51°23' E 003°46'0 0.0
2015-Jan-28 17:32N 51°23' E 003°46'2 2.4
2015-Jan-28 16:33N 51°25' E 003°43'9 8.9
2015-Jan-28 15:33N 51°25' E 003°29'1514.7
2015-Jan-28 14:33N 51°24' E 003°05'1312.9
2015-Jan-28 13:33N 51°22' E 002°45'5 4.9
2015-Jan-28 12:33N 51°23' E 002°37'5 5.0
2015-Jan-28 11:33N 51°22' E 002°29'1414.1
2015-Jan-28 10:34N 51°16' E 002°09'1515.0
2015-Jan-28 09:33N 51°08' E 001°48'7 7.2
2015-Jan-28 08:33N 51°02' E 001°55'1212.1
2015-Jan-28 07:33N 51°04' E 002°14'4 4.1
2015-Jan-28 06:31N 51°03' E 002°20'1 0.7
2015-Jan-28 05:31N 51°03' E 002°19'0 0.0
2015-Jan-28 02:32N 51°03' E 002°19'0 0.0
2015-Jan-28 01:26N 51°03' E 002°19'0 0.0
2015-Jan-28 00:29N 51°03' E 002°19'0 0.0
2015-Jan-27 23:26N 51°03' E 002°19'0 0.0
2015-Jan-27 22:20N 51°03' E 002°19'0 0.0
2015-Jan-27 21:29N 51°03' E 002°19'0 0.0
2015-Jan-27 16:26N 51°03' E 002°19'0 0.0
2015-Jan-27 15:20N 51°03' E 002°19'0 0.0
2015-Jan-27 14:32N 51°03' E 002°19'0 0.0
2015-Jan-27 13:20N 51°03' E 002°19'0 0.0
2015-Jan-27 12:32N 51°03' E 002°19'0 0.0
2015-Jan-27 11:23N 51°03' E 002°19'0 0.0
2015-Jan-27 10:32N 51°03' E 002°19'0 0.0
2015-Jan-27 09:26N 51°03' E 002°19'0 0.0
2015-Jan-27 07:32N 51°03' E 002°19'0 0.0
2015-Jan-27 02:23N 51°03' E 002°19'0 0.0
2015-Jan-27 01:32N 51°03' E 002°19'0 0.0
2015-Jan-27 00:20N 51°03' E 002°19'0 0.0
2015-Jan-26 23:26N 51°03' E 002°19'0 0.0
2015-Jan-26 22:20N 51°03' E 002°19'0 0.0
2015-Jan-26 21:31N 51°03' E 002°19'0 0.0
2015-Jan-26 13:31N 51°03' E 002°19'0 0.0
2015-Jan-26 12:29N 51°03' E 002°19'0 0.0
2015-Jan-26 11:25N 51°03' E 002°19'0 0.0
2015-Jan-26 10:31N 51°03' E 002°19'0 0.0
2015-Jan-26 09:10N 51°03' E 002°19'0 0.0
2015-Jan-26 08:31N 51°03' E 002°19'0 0.0
2015-Jan-26 07:31N 51°03' E 002°19'0 0.0
2015-Jan-26 06:19N 51°03' E 002°19'0 0.0
2015-Jan-26 03:19N 51°03' E 002°19'0 0.0
2015-Jan-25 23:04N 51°03' E 002°19'0 0.0
2015-Jan-25 22:31N 51°03' E 002°19'0 0.0
2015-Jan-25 21:31N 51°03' E 002°19'0 0.0
2015-Jan-25 20:31N 51°03' E 002°19'0 0.0
2015-Jan-25 19:09N 51°03' E 002°19'1 1.1
2015-Jan-25 18:33N 51°03' E 002°20'0 0.4
2015-Jan-25 17:33N 51°03' E 002°21'5 5.0
2015-Jan-25 16:32N 51°03' E 002°13'9 9.2
2015-Jan-25 15:33N 51°02' E 001°59'9 8.9
2015-Jan-25 14:32N 51°03' E 001°44'8 8.5
2015-Jan-25 13:33N 50°57' E 001°34'268 8.5
2015-Jan-24 06:00N 49°48' W 005°12'7011.7 330 / 131027.010.8 1.0 9.0 4.9
2015-Jan-24 00:00N 49°24' W 006°54'24613.7 320 / 271027.0 2.2 1.511.0 9.2
2015-Jan-23 06:00N 48°30' W 013°00'8213.6 280 / 191024.010.8 2.512.012.0
2015-Jan-23 00:00N 48°12' W 015°00'8213.7 270 / 201027.0 2.2 4.013.013.0
2015-Jan-22 18:00N 47°54' W 017°00'7913.1 280 / 191026.0 5.4 4.015.013.3
2015-Jan-22 12:00N 47°36' W 018°54'8313.9 270 / 221029.0 5.4 4.016.014.4
2015-Jan-22 06:00N 47°18' W 020°54'8413.9 280 / 231028.010.8 2.513.011.2
2015-Jan-22 00:00N 47°00' W 022°54'23212.9 270 / 191031.0 5.4 3.012.010.2
2015-Jan-21 06:00N 46°12' W 028°24'9816.4 240 / 141032.0 5.4 3.012.0 8.3
2015-Jan-21 00:00N 45°00' W 030°00'7612.7 230 / 181040.0 5.4 4.012.0 8.3
2015-Jan-20 18:00N 45°42' W 031°30'12810.7 210 / 201034.0 5.4 3.011.0 7.2
2015-Jan-20 06:00N 45°18' W 034°30'   180 / 71036.0 5.4 3.0 9.0 4.9
Track history (hours):
 
Tides and Currents Weather Stations Pressure Air Temp Water Temp Dewpoint Dewpoint Depression Visibility Wind Speed Wind Dir Waves Ship Positions

Am Tubarao

Last reported at 2015-Jan-29 22:05 UTC. Time now 2015-Feb-01 00:32 UTC.
Position N 50°29' W 000°02'.

Length 230 m; draft 9.3 m.

Type: Cargo ship. MMSI: 636015171.

Date/timePositionNaut miles runAvg speedWind from/ knotsBaromVisibWave heightAir tempDewpointWater temp
2015-Jan-29 22:05N 50°29' W 000°02'2013.1
2015-Jan-29 20:33N 50°34' E 000°29'1313.0
2015-Jan-29 19:33N 50°40' E 000°47'1313.0
2015-Jan-29 18:32N 50°47' E 001°05'1212.5
2015-Jan-29 17:34N 50°56' E 001°19'1312.6
2015-Jan-29 16:33N 51°05' E 001°33'1414.0
2015-Jan-29 15:34N 51°15' E 001°48'1313.3
2015-Jan-29 14:33N 51°24' E 002°02'1212.2
2015-Jan-29 13:33N 51°21' E 002°21'1212.2
2015-Jan-29 12:33N 51°23' E 002°40'1010.2
2015-Jan-29 11:33N 51°23' E 002°57'1212.5
2015-Jan-29 10:34N 51°25' E 003°16'1413.6
2015-Jan-29 09:34N 51°26' E 003°38'6 5.7
2015-Jan-29 08:32N 51°24' E 003°46'0 0.0
2015-Jan-29 07:32N 51°23' E 003°46'0 0.0
2015-Jan-29 06:32N 51°23' E 003°46'0 0.0
2015-Jan-29 05:32N 51°23' E 003°46'0 0.0
2015-Jan-29 04:32N 51°23' E 003°46'0 0.1
2015-Jan-29 03:32N 51°24' E 003°46'0 0.1
2015-Jan-29 02:32N 51°24' E 003°46'0 0.1
2015-Jan-29 01:32N 51°24' E 003°46'0 0.0
2015-Jan-29 00:32N 51°24' E 003°46'0 0.0
2015-Jan-28 23:32N 51°24' E 003°46'0 0.1
2015-Jan-28 22:32N 51°24' E 003°46'0 0.2
2015-Jan-28 21:32N 51°23' E 003°46'0 0.0
2015-Jan-28 20:32N 51°23' E 003°46'0 0.0
2015-Jan-28 19:29N 51°23' E 003°46'0 0.0
2015-Jan-28 18:32N 51°23' E 003°46'0 0.0
2015-Jan-28 17:32N 51°23' E 003°46'2 2.4
2015-Jan-28 16:33N 51°25' E 003°43'9 8.9
2015-Jan-28 15:33N 51°25' E 003°29'1514.7
2015-Jan-28 14:33N 51°24' E 003°05'1312.9
2015-Jan-28 13:33N 51°22' E 002°45'5 4.9
2015-Jan-28 12:33N 51°23' E 002°37'5 5.0
2015-Jan-28 11:33N 51°22' E 002°29'1414.1
2015-Jan-28 10:34N 51°16' E 002°09'1515.0
2015-Jan-28 09:33N 51°08' E 001°48'7 7.2
2015-Jan-28 08:33N 51°02' E 001°55'1212.1
2015-Jan-28 07:33N 51°04' E 002°14'4 4.1
2015-Jan-28 06:31N 51°03' E 002°20'1 0.7
2015-Jan-28 05:31N 51°03' E 002°19'0 0.0
2015-Jan-28 02:32N 51°03' E 002°19'0 0.0
2015-Jan-28 01:26N 51°03' E 002°19'0 0.0
2015-Jan-28 00:29N 51°03' E 002°19'0 0.0
2015-Jan-27 23:26N 51°03' E 002°19'0 0.0
2015-Jan-27 22:20N 51°03' E 002°19'0 0.0
2015-Jan-27 21:29N 51°03' E 002°19'0 0.0
2015-Jan-27 16:26N 51°03' E 002°19'0 0.0
2015-Jan-27 15:20N 51°03' E 002°19'0 0.0
2015-Jan-27 14:32N 51°03' E 002°19'0 0.0
2015-Jan-27 13:20N 51°03' E 002°19'0 0.0
2015-Jan-27 12:32N 51°03' E 002°19'0 0.0
2015-Jan-27 11:23N 51°03' E 002°19'0 0.0
2015-Jan-27 10:32N 51°03' E 002°19'0 0.0
2015-Jan-27 09:26N 51°03' E 002°19'0 0.0
2015-Jan-27 07:32N 51°03' E 002°19'0 0.0
2015-Jan-27 02:23N 51°03' E 002°19'0 0.0
2015-Jan-27 01:32N 51°03' E 002°19'0 0.0
2015-Jan-27 00:20N 51°03' E 002°19'0 0.0
2015-Jan-26 23:26N 51°03' E 002°19'0 0.0
2015-Jan-26 22:20N 51°03' E 002°19'0 0.0
2015-Jan-26 21:31N 51°03' E 002°19'0 0.0
2015-Jan-26 13:31N 51°03' E 002°19'0 0.0
2015-Jan-26 12:29N 51°03' E 002°19'0 0.0
2015-Jan-26 11:25N 51°03' E 002°19'0 0.0
2015-Jan-26 10:31N 51°03' E 002°19'0 0.0
2015-Jan-26 09:10N 51°03' E 002°19'0 0.0
2015-Jan-26 08:31N 51°03' E 002°19'0 0.0
2015-Jan-26 07:31N 51°03' E 002°19'0 0.0
2015-Jan-26 06:19N 51°03' E 002°19'0 0.0
2015-Jan-26 03:19N 51°03' E 002°19'0 0.0
2015-Jan-25 23:04N 51°03' E 002°19'0 0.0
2015-Jan-25 22:31N 51°03' E 002°19'0 0.0
2015-Jan-25 21:31N 51°03' E 002°19'0 0.0
2015-Jan-25 20:31N 51°03' E 002°19'0 0.0
2015-Jan-25 19:09N 51°03' E 002°19'1 1.1
2015-Jan-25 18:33N 51°03' E 002°20'0 0.4
2015-Jan-25 17:33N 51°03' E 002°21'5 5.0
2015-Jan-25 16:32N 51°03' E 002°13'9 9.2
2015-Jan-25 15:33N 51°02' E 001°59'9 8.9
2015-Jan-25 14:32N 51°03' E 001°44'8 8.5
2015-Jan-25 13:33N 50°57' E 001°34'268 8.5
2015-Jan-24 06:00N 49°48' W 005°12'7011.7 330 / 131027.010.8 1.0 9.0 4.9
2015-Jan-24 00:00N 49°24' W 006°54'24613.7 320 / 271027.0 2.2 1.511.0 9.2
2015-Jan-23 06:00N 48°30' W 013°00'8213.6 280 / 191024.010.8 2.512.012.0
2015-Jan-23 00:00N 48°12' W 015°00'8213.7 270 / 201027.0 2.2 4.013.013.0
2015-Jan-22 18:00N 47°54' W 017°00'7913.1 280 / 191026.0 5.4 4.015.013.3
2015-Jan-22 12:00N 47°36' W 018°54'8313.9 270 / 221029.0 5.4 4.016.014.4
2015-Jan-22 06:00N 47°18' W 020°54'8413.9 280 / 231028.010.8 2.513.011.2
2015-Jan-22 00:00N 47°00' W 022°54'23212.9 270 / 191031.0 5.4 3.012.010.2
2015-Jan-21 06:00N 46°12' W 028°24'9816.4 240 / 141032.0 5.4 3.012.0 8.3
2015-Jan-21 00:00N 45°00' W 030°00'7612.7 230 / 181040.0 5.4 4.012.0 8.3
2015-Jan-20 18:00N 45°42' W 031°30'12810.7 210 / 201034.0 5.4 3.011.0 7.2
2015-Jan-20 06:00N 45°18' W 034°30'   180 / 71036.0 5.4 3.0 9.0 4.9

Dump ship's entire track history